Time;durP1;ratioP1;P1;durP2;ratioP2;P2;SDS_P1;SDS_P2;PMS_P1;PMS_P2;Temp;Humidity;BMP_temperature;BMP_pressure;BME280_temperature;BME280_humidity;BME280_pressure;Samples;Min_cycle;Max_cycle;Signal;HPM_P1;HPM_P2
2021/10/27 00:01:32;;;;;;;191.60;51.13;;;13.50;99.90;;;;;;6196445;23;20489;-76
2021/10/27 00:04:00;;;;;;;205.40;52.23;;;13.50;99.90;;;;;;6159882;23;20412;-75
2021/10/27 00:06:29;;;;;;;228.40;52.50;;;13.50;99.90;;;;;;6196431;23;20730;-75
2021/10/27 00:08:57;;;;;;;286.37;65.43;;;13.50;99.90;;;;;;6160005;23;20418;-75
2021/10/27 00:11:25;;;;;;;207.97;54.20;;;13.50;99.90;;;;;;6159773;23;20458;-75
2021/10/27 00:13:53;;;;;;;225.63;44.17;;;13.50;99.90;;;;;;6196021;23;20462;-75
2021/10/27 00:16:23;;;;;;;91.53;29.67;;;13.50;99.90;;;;;;6159517;23;20422;-74
2021/10/27 00:18:51;;;;;;;304.87;64.77;;;13.50;99.90;;;;;;6159774;23;20447;-75
2021/10/27 00:21:19;;;;;;;235.53;56.33;;;13.50;99.90;;;;;;6160752;23;20438;-75
2021/10/27 00:23:48;;;;;;;187.87;40.97;;;13.50;99.90;;;;;;6196422;23;20400;-76
2021/10/27 00:26:16;;;;;;;250.57;46.63;;;13.50;99.90;;;;;;6159978;23;20450;-75
2021/10/27 00:28:44;;;;;;;297.03;59.80;;;13.50;99.90;;;;;;6159819;23;20412;-76
2021/10/27 00:31:12;;;;;;;144.77;42.63;;;13.50;99.90;;;;;;6196723;23;20930;-75
2021/10/27 00:33:43;;;;;;;249.53;56.37;;;13.50;99.90;;;;;;6160033;23;20945;-76
2021/10/27 00:36:12;;;;;;;165.83;41.43;;;13.50;99.90;;;;;;6195784;23;20459;-74
2021/10/27 00:38:40;;;;;;;150.70;51.70;;;13.50;99.90;;;;;;6160348;23;20458;-75
2021/10/27 00:41:10;;;;;;;287.17;56.30;;;13.50;99.90;;;;;;6195830;23;20431;-75
2021/10/27 00:43:38;;;;;;;222.97;55.23;;;13.50;99.90;;;;;;6195893;23;20396;-75
2021/10/27 00:46:17;;;;;;;137.40;44.33;;;13.50;99.90;;;;;;6159543;23;20506;-75
2021/10/27 00:48:47;;;;;;;203.90;52.13;;;13.50;99.90;;;;;;6195920;23;20388;-76
2021/10/27 00:51:16;;;;;;;194.00;56.90;;;13.50;99.90;;;;;;6195909;23;20388;-75
2021/10/27 00:53:46;;;;;;;352.30;64.77;;;13.50;99.90;;;;;;6159436;23;20436;-75
2021/10/27 00:56:15;;;;;;;241.03;53.00;;;13.50;99.90;;;;;;6160674;23;20411;-76
2021/10/27 00:58:44;;;;;;;193.13;53.83;;;13.50;99.90;;;;;;6159814;23;20506;-75
2021/10/27 01:01:12;;;;;;;280.70;63.50;;;13.50;99.90;;;;;;6159993;23;20449;-75
2021/10/27 01:03:41;;;;;;;248.13;51.93;;;13.50;99.90;;;;;;6159421;23;20419;-76
2021/10/27 01:06:10;;;;;;;201.20;52.07;;;13.50;99.90;;;;;;6159439;23;20903;-75
2021/10/27 01:08:38;;;;;;;192.40;59.20;;;13.50;99.90;;;;;;6196025;23;20745;-75
2021/10/27 01:11:07;;;;;;;353.90;68.63;;;13.50;99.90;;;;;;6159360;23;20435;-75
2021/10/27 01:13:35;;;;;;;360.77;71.33;;;13.50;99.90;;;;;;6159069;23;20567;-75
2021/10/27 01:16:03;;;;;;;217.70;51.93;;;13.50;99.90;;;;;;6195682;23;20403;-76
2021/10/27 01:18:31;;;;;;;295.23;65.43;;;13.50;99.90;;;;;;6159186;23;20423;-75
2021/10/27 01:21:01;;;;;;;244.57;58.33;;;13.50;99.90;;;;;;6195574;23;20454;-75
2021/10/27 01:23:31;;;;;;;227.97;53.93;;;13.50;99.90;;;;;;6195446;23;20890;-75
2021/10/27 01:26:04;;;;;;;246.83;60.97;;;13.50;99.90;;;;;;6185526;23;20494;-75
2021/10/27 01:28:32;;;;;;;245.13;55.70;;;13.50;99.90;;;;;;6159346;23;20419;-76
2021/10/27 01:31:00;;;;;;;223.27;55.47;;;13.50;99.90;;;;;;6159160;23;20474;-75
2021/10/27 01:33:28;;;;;;;223.27;52.83;;;13.50;99.90;;;;;;6185847;23;20455;-75
2021/10/27 01:35:57;;;;;;;338.30;60.83;;;13.60;99.90;;;;;;6186026;23;20798;-76
2021/10/27 01:38:26;;;;;;;292.27;59.67;;;13.50;99.90;;;;;;6159208;23;20900;-75
2021/10/27 01:40:54;;;;;;;247.33;56.57;;;13.50;99.90;;;;;;6185146;23;20942;-75
2021/10/27 01:43:22;;;;;;;278.70;61.97;;;13.50;99.90;;;;;;6195535;23;20399;-75
2021/10/27 01:45:51;;;;;;;246.43;53.77;;;13.60;99.90;;;;;;6195602;23;20395;-76
2021/10/27 01:48:19;;;;;;;214.87;56.17;;;13.60;99.90;;;;;;6185970;23;20415;-75
2021/10/27 01:50:47;;;;;;;309.07;66.60;;;13.60;99.90;;;;;;6186127;23;20427;-75
2021/10/27 01:53:15;;;;;;;325.30;65.57;;;13.60;99.90;;;;;;6195515;23;20478;-76
2021/10/27 01:55:45;;;;;;;200.40;53.37;;;13.60;99.90;;;;;;6195644;23;20396;-76
2021/10/27 01:58:13;;;;;;;241.97;58.37;;;13.60;99.90;;;;;;6196134;23;20494;-74
2021/10/27 02:00:41;;;;;;;300.97;54.80;;;13.60;99.90;;;;;;6158978;23;20438;-75
2021/10/27 02:03:10;;;;;;;214.37;53.93;;;13.60;99.90;;;;;;6159305;23;20426;-75
2021/10/27 02:05:39;;;;;;;321.60;56.23;;;13.60;99.90;;;;;;6159177;23;20907;-75
2021/10/27 02:08:08;;;;;;;282.30;54.77;;;13.60;99.90;;;;;;6159087;23;20934;-75
2021/10/27 02:10:36;;;;;;;327.03;69.13;;;13.60;99.90;;;;;;6159153;23;20798;-75
2021/10/27 02:13:07;;;;;;;318.70;67.57;;;13.60;99.90;;;;;;6159371;23;20415;-76
2021/10/27 02:15:35;;;;;;;227.10;50.50;;;13.60;99.90;;;;;;6158983;23;20762;-76
2021/10/27 02:18:03;;;;;;;272.37;54.27;;;13.60;99.90;;;;;;6159425;23;20883;-75
2021/10/27 02:20:32;;;;;;;185.40;49.27;;;13.60;99.90;;;;;;6195361;23;20419;-76
2021/10/27 02:23:00;;;;;;;313.20;66.97;;;13.60;99.90;;;;;;6185823;23;20410;-76
2021/10/27 02:25:28;;;;;;;252.13;55.93;;;13.60;99.90;;;;;;6195450;23;20400;-75
2021/10/27 02:27:56;;;;;;;272.30;58.07;;;13.60;99.90;;;;;;6185573;23;20482;-75
2021/10/27 02:30:26;;;;;;;249.13;65.43;;;13.60;99.90;;;;;;6159003;23;20501;-76
2021/10/27 02:32:55;;;;;;;330.83;60.77;;;13.60;99.90;;;;;;6159002;23;20510;-75
2021/10/27 02:35:24;;;;;;;268.37;67.60;;;13.60;99.90;;;;;;6159514;23;20530;-75
2021/10/27 02:37:52;;;;;;;308.83;53.80;;;13.60;99.90;;;;;;6160708;23;20894;-76
2021/10/27 02:40:20;;;;;;;224.00;60.50;;;13.60;99.90;;;;;;6160729;23;20478;-76
2021/10/27 02:42:48;;;;;;;265.93;61.07;;;13.60;99.90;;;;;;6187451;23;20415;-76
2021/10/27 02:45:16;;;;;;;327.73;68.50;;;13.60;99.90;;;;;;6160644;23;20435;-76
2021/10/27 02:47:46;;;;;;;267.60;61.33;;;13.60;99.90;;;;;;6197140;23;20400;-76
2021/10/27 02:50:15;;;;;;;175.07;57.47;;;13.60;99.90;;;;;;6160575;23;20470;-75
2021/10/27 02:52:45;;;;;;;316.00;62.93;;;13.60;99.90;;;;;;6160461;23;20494;-75
2021/10/27 02:55:13;;;;;;;278.07;64.93;;;13.60;99.90;;;;;;6160656;23;20439;-76
2021/10/27 02:57:41;;;;;;;234.73;61.00;;;13.60;99.90;;;;;;6196832;23;20395;-76
2021/10/27 03:00:10;;;;;;;250.40;56.50;;;13.60;99.90;;;;;;6196826;23;20506;-75
2021/10/27 03:02:39;;;;;;;271.23;56.97;;;13.60;99.90;;;;;;6160434;23;20447;-76
2021/10/27 03:05:09;;;;;;;209.20;52.77;;;13.60;99.90;;;;;;6186835;23;20891;-76
2021/10/27 03:07:37;;;;;;;315.00;68.50;;;13.60;99.90;;;;;;6197558;23;20744;-76
2021/10/27 03:10:07;;;;;;;278.13;58.03;;;13.60;99.90;;;;;;6197120;23;20491;-75
2021/10/27 03:12:35;;;;;;;279.07;62.37;;;13.60;99.90;;;;;;6160420;23;20437;-75
2021/10/27 03:15:03;;;;;;;282.50;73.50;;;13.60;99.90;;;;;;6160383;23;20439;-75
2021/10/27 03:17:32;;;;;;;282.33;65.97;;;13.60;99.90;;;;;;6160427;23;20503;-76
2021/10/27 03:20:00;;;;;;;208.00;52.63;;;13.60;99.90;;;;;;6160668;23;20770;-75
2021/10/27 03:22:29;;;;;;;308.30;73.40;;;13.60;99.90;;;;;;6196714;23;20424;-76
2021/10/27 03:24:58;;;;;;;215.53;52.90;;;13.60;99.90;;;;;;6160370;23;20414;-76
2021/10/27 03:27:26;;;;;;;257.53;64.17;;;13.60;99.90;;;;;;6160243;23;20442;-76
2021/10/27 03:29:54;;;;;;;298.87;68.37;;;13.60;99.90;;;;;;6160582;23;20435;-76
2021/10/27 03:32:22;;;;;;;305.90;74.60;;;13.70;99.90;;;;;;6196506;23;20487;-75
2021/10/27 03:34:50;;;;;;;221.43;55.83;;;13.70;99.90;;;;;;6160170;23;20443;-76
2021/10/27 03:37:18;;;;;;;266.97;55.67;;;13.70;99.90;;;;;;6160842;23;20414;-76
2021/10/27 03:39:48;;;;;;;217.73;51.00;;;13.70;99.90;;;;;;6196493;23;20762;-76
2021/10/27 03:42:16;;;;;;;312.47;66.57;;;13.70;99.90;;;;;;6186733;23;20394;-75
2021/10/27 03:44:44;;;;;;;324.97;65.97;;;13.70;99.90;;;;;;6196758;23;20482;-75
2021/10/27 03:47:12;;;;;;;304.17;67.77;;;13.70;99.90;;;;;;6186184;23;20403;-76
2021/10/27 03:49:40;;;;;;;252.57;59.33;;;13.70;99.90;;;;;;6160772;23;20443;-75
2021/10/27 03:52:08;;;;;;;206.13;50.03;;;13.70;99.90;;;;;;6160120;23;20518;-76
2021/10/27 03:54:36;;;;;;;279.33;56.60;;;13.70;99.90;;;;;;6196340;23;20474;-75
2021/10/27 03:57:06;;;;;;;267.80;60.40;;;13.70;99.90;;;;;;6160027;23;20439;-76
2021/10/27 03:59:34;;;;;;;284.30;61.37;;;13.70;99.90;;;;;;6159934;23;20966;-75
2021/10/27 04:02:03;;;;;;;187.10;52.97;;;13.80;99.90;;;;;;6197029;23;20396;-76
2021/10/27 04:04:31;;;;;;;370.43;66.63;;;13.80;99.90;;;;;;6160150;23;20491;-76
2021/10/27 04:07:00;;;;;;;277.43;61.93;;;13.70;99.90;;;;;;6196480;23;20812;-76
2021/10/27 04:09:29;;;;;;;220.97;59.37;;;13.80;99.90;;;;;;6159825;23;20782;-76
2021/10/27 04:11:57;;;;;;;242.40;51.93;;;13.80;99.90;;;;;;6159732;23;20411;-75
2021/10/27 04:14:27;;;;;;;311.73;73.53;;;13.80;99.90;;;;;;6159851;23;20498;-76
2021/10/27 04:16:55;;;;;;;212.87;60.90;;;13.80;99.90;;;;;;6196121;23;20407;-76
2021/10/27 04:19:23;;;;;;;274.57;54.50;;;13.80;99.90;;;;;;6159911;23;20432;-76
2021/10/27 04:21:51;;;;;;;260.57;57.83;;;13.80;99.90;;;;;;6159840;23;20462;-75
2021/10/27 04:24:20;;;;;;;287.73;70.57;;;13.80;99.90;;;;;;6159833;23;20420;-76
2021/10/27 04:26:49;;;;;;;228.80;54.47;;;13.80;99.90;;;;;;6196795;23;20406;-75
2021/10/27 04:29:17;;;;;;;367.87;69.00;;;13.80;99.90;;;;;;6186627;23;20841;-75
2021/10/27 04:31:46;;;;;;;232.40;67.30;;;13.70;99.90;;;;;;6159817;23;20518;-76
2021/10/27 04:34:15;;;;;;;251.30;60.10;;;13.80;99.90;;;;;;6159862;23;20969;-76
2021/10/27 04:36:43;;;;;;;301.20;62.67;;;13.70;99.90;;;;;;6160472;23;20833;-76
2021/10/27 04:39:11;;;;;;;237.50;53.03;;;13.70;99.90;;;;;;6159871;23;20467;-76
2021/10/27 04:41:39;;;;;;;202.20;58.13;;;13.70;99.90;;;;;;6159849;23;20419;-76
2021/10/27 04:44:07;;;;;;;238.87;63.10;;;13.70;99.90;;;;;;6196070;23;20895;-76
2021/10/27 04:46:35;;;;;;;201.77;57.00;;;13.70;99.90;;;;;;6159902;23;20422;-75
2021/10/27 04:49:05;;;;;;;241.87;55.20;;;13.70;99.90;;;;;;6159382;23;20447;-76
2021/10/27 04:51:33;;;;;;;252.13;59.73;;;13.70;99.90;;;;;;6159549;23;20420;-76
2021/10/27 04:54:01;;;;;;;245.50;69.97;;;13.70;99.90;;;;;;6159637;23;20411;-76
2021/10/27 04:56:30;;;;;;;217.63;55.97;;;13.70;99.90;;;;;;6159501;23;20499;-76
2021/10/27 04:58:58;;;;;;;190.97;60.17;;;13.70;99.90;;;;;;6185396;23;20428;-75
2021/10/27 05:01:26;;;;;;;283.20;63.67;;;13.70;99.90;;;;;;6159498;23;20418;-75
2021/10/27 05:03:55;;;;;;;205.70;53.03;;;13.70;99.90;;;;;;6195767;23;20400;-75
2021/10/27 05:06:25;;;;;;;292.93;68.53;;;13.70;99.90;;;;;;6159412;23;20510;-76
2021/10/27 05:08:53;;;;;;;244.20;68.30;;;13.70;99.90;;;;;;6159484;23;20419;-75
2021/10/27 05:11:21;;;;;;;289.07;67.20;;;13.70;99.90;;;;;;6159534;23;20419;-75
2021/10/27 05:13:50;;;;;;;158.87;45.10;;;13.70;99.90;;;;;;6159400;23;20458;-76
2021/10/27 05:16:18;;;;;;;231.87;52.20;;;13.70;99.90;;;;;;6159800;23;20439;-75
2021/10/27 05:18:46;;;;;;;301.73;67.63;;;13.70;99.90;;;;;;6159675;23;20418;-76
2021/10/27 05:21:14;;;;;;;244.10;74.50;;;13.70;99.90;;;;;;6159395;23;20955;-76
2021/10/27 05:23:46;;;;;;;326.57;63.90;;;13.80;99.90;;;;;;6196137;23;20412;-76
2021/10/27 05:26:14;;;;;;;180.43;58.83;;;13.80;99.90;;;;;;6159419;23;20419;-76
2021/10/27 05:28:42;;;;;;;215.63;64.50;;;13.80;99.90;;;;;;6185959;23;20407;-76
2021/10/27 05:31:11;;;;;;;280.27;63.20;;;13.80;99.90;;;;;;6186055;23;20427;-76
2021/10/27 05:33:40;;;;;;;184.50;46.30;;;13.80;99.90;;;;;;6196387;23;20395;-76
2021/10/27 05:36:08;;;;;;;243.77;58.60;;;13.80;99.90;;;;;;6159185;23;20522;-76
2021/10/27 05:38:36;;;;;;;270.57;65.47;;;13.80;99.90;;;;;;6195511;23;20479;-77
2021/10/27 05:41:06;;;;;;;275.53;55.80;;;13.80;99.90;;;;;;6158853;23;20839;-77
2021/10/27 05:43:35;;;;;;;321.83;66.77;;;13.80;99.90;;;;;;6159307;23;20454;-77
2021/10/27 05:46:04;;;;;;;202.90;55.37;;;13.80;99.90;;;;;;6186183;23;20408;-77
2021/10/27 05:48:36;;;;;;;289.77;62.47;;;13.80;99.90;;;;;;6159324;23;20937;-77
2021/10/27 05:51:16;;;;;;;272.23;66.03;;;13.80;99.90;;;;;;6159196;23;20529;-75
2021/10/27 05:56:34;;;;;;;213.17;58.83;;;13.80;99.90;;;;;;6195745;23;20426;-75
2021/10/27 05:59:02;;;;;;;246.93;52.43;;;13.90;99.90;;;;;;6159293;23;20795;-76
2021/10/27 06:01:30;;;;;;;224.73;54.10;;;13.90;99.90;;;;;;6159360;23;20820;-75
2021/10/27 06:03:59;;;;;;;254.03;59.50;;;13.90;99.90;;;;;;6159233;23;20420;-76
2021/10/27 06:06:27;;;;;;;249.93;56.57;;;13.90;99.90;;;;;;6196023;23;20479;-76
2021/10/27 06:08:58;;;;;;;386.50;75.47;;;13.90;99.90;;;;;;6159154;23;20462;-75
2021/10/27 06:11:26;;;;;;;252.77;61.60;;;13.90;99.90;;;;;;6197168;23;20411;-76
2021/10/27 06:13:56;;;;;;;240.83;51.40;;;13.90;99.90;;;;;;6161053;23;20787;-76
2021/10/27 06:16:24;;;;;;;282.53;56.03;;;13.90;99.90;;;;;;6160829;23;20443;-76
2021/10/27 06:18:53;;;;;;;271.33;56.67;;;13.90;99.90;;;;;;6161047;23;20414;-76
2021/10/27 06:21:21;;;;;;;289.53;61.03;;;13.90;99.90;;;;;;6161356;23;20425;-76
2021/10/27 06:23:50;;;;;;;288.60;61.30;;;13.90;99.90;;;;;;6160886;23;20458;-76
2021/10/27 06:26:19;;;;;;;258.97;49.93;;;13.90;99.90;;;;;;6160937;23;20420;-76
2021/10/27 06:28:57;;;;;;;252.90;57.27;;;13.90;99.90;;;;;;6160711;23;20442;-76
2021/10/27 06:31:31;;;;;;;300.87;57.73;;;13.90;99.90;;;;;;6197355;23;20395;-76
2021/10/27 06:34:05;;;;;;;348.83;61.10;;;13.90;99.90;;;;;;6161974;23;20518;-76
2021/10/27 06:36:41;;;;;;;225.07;54.03;;;13.90;99.90;;;;;;6161710;23;20428;-76
2021/10/27 06:47:30;;;;;;;238.77;53.97;;;14.00;99.90;;;;;;6197722;23;20463;-76
2021/10/27 06:49:58;;;;;;;267.73;59.50;;;14.00;99.90;;;;;;6160385;23;20431;-76
2021/10/27 06:52:26;;;;;;;327.87;73.03;;;14.00;99.90;;;;;;6197053;23;20396;-76
2021/10/27 06:54:54;;;;;;;266.60;52.33;;;14.00;99.90;;;;;;6160576;23;21075;-76
2021/10/27 06:57:25;;;;;;;219.17;43.30;;;14.00;99.90;;;;;;6197242;23;20436;-75
2021/10/27 06:59:58;;;;;;;284.50;61.67;;;14.10;99.90;;;;;;6196921;23;20898;-76
2021/10/27 07:02:49;;;;;;;256.23;51.40;;;14.00;99.90;;;;;;6160560;23;20416;-76
2021/10/27 07:05:34;;;;;;;194.97;53.40;;;14.10;99.90;;;;;;6160624;23;20440;-76
2021/10/27 07:16:19;;;;;;;277.53;55.97;;;14.10;99.90;;;;;;6186940;23;20917;-76
2021/10/27 07:18:49;;;;;;;283.10;55.87;;;14.10;99.90;;;;;;6187136;23;20411;-75
2021/10/27 07:21:17;;;;;;;317.00;63.93;;;14.10;99.90;;;;;;6160165;23;20454;-76
2021/10/27 07:23:45;;;;;;;283.27;59.43;;;14.10;99.90;;;;;;6160192;23;20415;-76
2021/10/27 07:26:15;;;;;;;189.63;49.03;;;14.10;99.90;;;;;;6160566;23;20903;-76
2021/10/27 07:28:45;;;;;;;257.50;61.30;;;14.20;99.90;;;;;;6160490;23;20458;-76
2021/10/27 07:31:15;;;;;;;188.43;49.47;;;14.20;99.90;;;;;;6160350;23;20478;-76
2021/10/27 07:33:49;;;;;;;342.37;52.10;;;14.10;99.90;;;;;;6160217;23;20895;-75
2021/10/27 07:36:31;;;;;;;207.03;55.07;;;14.20;99.90;;;;;;6160378;23;20431;-76
2021/10/27 07:41:44;;;;;;;224.50;46.17;;;14.20;99.90;;;;;;6160337;23;20755;-75
2021/10/27 07:44:15;;;;;;;194.73;49.67;;;14.20;99.90;;;;;;6160272;23;20418;-75
2021/10/27 07:46:44;;;;;;;339.57;62.53;;;14.20;99.90;;;;;;6160169;23;20439;-75
2021/10/27 07:49:12;;;;;;;191.43;49.03;;;14.20;99.90;;;;;;6160104;23;20446;-75
2021/10/27 07:51:42;;;;;;;250.83;58.77;;;14.20;99.90;;;;;;6160287;23;20455;-75
2021/10/27 07:54:14;;;;;;;322.90;67.13;;;14.20;99.90;;;;;;6161462;23;20783;-76
2021/10/27 07:56:43;;;;;;;153.27;45.23;;;14.20;99.90;;;;;;6160018;23;20439;-76
2021/10/27 07:59:12;;;;;;;268.30;56.83;;;14.20;99.90;;;;;;6160025;23;20463;-76
2021/10/27 08:01:40;;;;;;;287.70;67.27;;;14.30;99.90;;;;;;6160133;23;20783;-75
2021/10/27 08:04:08;;;;;;;198.90;55.67;;;14.30;99.90;;;;;;6186265;23;20934;-76
2021/10/27 08:06:37;;;;;;;240.53;51.17;;;14.30;99.90;;;;;;6160092;23;20419;-76
2021/10/27 08:09:08;;;;;;;310.33;54.83;;;14.30;99.90;;;;;;6159804;23;20418;-76
2021/10/27 08:11:37;;;;;;;266.87;63.87;;;14.30;99.90;;;;;;6159845;23;20498;-76
2021/10/27 08:14:05;;;;;;;290.10;58.00;;;14.30;99.90;;;;;;6160021;23;20466;-76
2021/10/27 08:16:34;;;;;;;274.13;58.40;;;14.30;99.90;;;;;;6159591;23;20462;-75
2021/10/27 08:19:04;;;;;;;232.73;60.30;;;14.30;99.90;;;;;;6195951;23;20714;-76
2021/10/27 08:21:32;;;;;;;279.17;51.87;;;14.30;99.90;;;;;;6161291;23;20424;-75
2021/10/27 08:24:00;;;;;;;279.33;61.13;;;14.40;99.90;;;;;;6159681;23;20933;-76
2021/10/27 08:26:30;;;;;;;187.80;51.20;;;14.40;99.90;;;;;;6159998;23;20875;-76
2021/10/27 08:29:00;;;;;;;223.63;51.57;;;14.40;99.90;;;;;;6159687;23;20490;-76
2021/10/27 08:31:35;;;;;;;275.13;56.33;;;14.40;99.90;;;;;;6159826;23;20419;-75
2021/10/27 08:34:09;;;;;;;249.93;59.50;;;14.40;99.90;;;;;;6159601;23;20446;-76
2021/10/27 08:36:38;;;;;;;178.40;46.40;;;14.40;99.90;;;;;;6196384;23;20384;-76
2021/10/27 08:39:09;;;;;;;229.00;55.33;;;14.40;99.90;;;;;;6186224;23;20462;-76
2021/10/27 08:41:46;;;;;;;227.93;53.27;;;14.40;99.90;;;;;;6195701;23;20862;-75
2021/10/27 08:44:14;;;;;;;371.37;66.57;;;14.40;99.90;;;;;;6159510;23;20416;-76
2021/10/27 08:46:44;;;;;;;192.20;48.13;;;14.50;99.90;;;;;;6159677;23;20491;-76
2021/10/27 08:49:16;;;;;;;318.23;57.37;;;14.50;99.90;;;;;;6185708;23;20933;-76
2021/10/27 08:51:45;;;;;;;231.87;50.70;;;14.50;99.90;;;;;;6159593;23;20446;-75
2021/10/27 08:54:14;;;;;;;249.07;58.73;;;14.50;99.90;;;;;;6196129;23;20910;-76
2021/10/27 08:56:44;;;;;;;293.27;60.37;;;14.50;99.90;;;;;;6159748;23;20420;-76
2021/10/27 08:59:17;;;;;;;250.80;57.27;;;14.50;99.90;;;;;;6185924;23;20448;-76
2021/10/27 09:01:58;;;;;;;260.30;57.17;;;14.60;99.90;;;;;;6160592;23;20435;-76
2021/10/27 09:04:42;;;;;;;238.40;61.43;;;14.60;99.90;;;;;;6185479;23;20392;-75
2021/10/27 09:07:20;;;;;;;206.87;52.87;;;14.60;99.90;;;;;;6159468;23;20445;-76
2021/10/27 09:35:30;;;;;;;217.57;55.93;;;14.60;99.90;;;;;;6196063;23;20384;-76
2021/10/27 09:38:19;;;;;;;198.90;58.57;;;14.60;99.90;;;;;;6159956;23;20435;-76
2021/10/27 09:41:20;;;;;;;279.00;58.80;;;14.60;99.90;;;;;;6159331;23;20498;-75
2021/10/27 09:44:15;;;;;;;173.03;48.07;;;14.70;99.90;;;;;;6159234;23;20426;-75
2021/10/27 10:06:54;;;;;;;266.87;47.13;;;14.70;99.90;;;;;;6160798;23;20471;-75
2021/10/27 10:09:22;;;;;;;266.93;56.97;;;14.70;99.90;;;;;;6197727;23;20498;-76
2021/10/27 10:11:51;;;;;;;302.20;62.90;;;14.70;99.90;;;;;;6161088;23;20419;-75
2021/10/27 10:14:20;;;;;;;229.10;51.53;;;14.70;99.90;;;;;;6161149;23;20455;-75
2021/10/27 10:16:51;;;;;;;230.13;45.27;;;14.70;99.90;;;;;;6197556;23;20403;-76
2021/10/27 10:19:21;;;;;;;289.60;64.07;;;14.70;99.90;;;;;;6160845;23;20482;-76
2021/10/27 10:21:52;;;;;;;249.57;51.70;;;14.70;99.90;;;;;;6197895;23;20400;-76
2021/10/27 10:24:37;;;;;;;324.40;63.70;;;14.70;99.90;;;;;;6161150;23;20499;-76
2021/10/27 10:27:12;;;;;;;199.20;53.00;;;14.80;99.90;;;;;;6160997;23;20502;-76
2021/10/27 10:29:50;;;;;;;267.03;53.67;;;14.80;99.90;;;;;;6197946;23;20458;-76
2021/10/27 10:32:38;;;;;;;207.60;46.00;;;14.80;99.90;;;;;;6160993;23;20486;-76
2021/10/27 10:35:12;;;;;;;232.87;49.07;;;14.80;99.90;;;;;;6160705;23;20855;-76
2021/10/27 10:37:48;;;;;;;268.07;56.93;;;14.80;99.90;;;;;;6160845;23;20498;-76
2021/10/27 11:23:17;;;;;;;226.37;52.87;;;15.00;99.90;;;;;;6160093;23;20498;-76
2021/10/27 11:40:32;;;;;;;233.27;57.60;;;15.10;99.90;;;;;;6138443;23;20443;-75
2021/10/27 11:43:04;;;;;;;231.30;47.90;;;15.10;99.90;;;;;;6160089;23;20420;-76
2021/10/27 11:45:52;;;;;;;286.57;56.23;;;15.10;99.90;;;;;;6160557;23;20921;-75
2021/10/27 11:48:51;;;;;;;247.87;52.83;;;15.10;99.90;;;;;;6160378;23;20408;-76
2021/10/27 11:51:20;;;;;;;220.30;51.87;;;15.10;99.90;;;;;;6160082;23;20408;-75
2021/10/27 11:53:49;;;;;;;388.60;67.13;;;15.10;99.90;;;;;;6186636;23;20412;-76
2021/10/27 11:56:23;;;;;;;314.37;63.73;;;15.10;99.90;;;;;;6197211;23;20427;-76
2021/10/27 11:58:54;;;;;;;325.37;64.23;;;15.10;99.90;;;;;;6159817;23;20950;-76
2021/10/27 12:01:25;;;;;;;317.23;72.13;;;15.10;99.90;;;;;;6161082;23;20422;-76
2021/10/27 12:03:58;;;;;;;368.90;59.87;;;15.10;99.90;;;;;;6196375;23;20390;-76
2021/10/27 12:09:29;;;;;;;339.90;80.37;;;15.10;99.90;;;;;;6184875;23;20444;-76
2021/10/27 12:12:18;;;;;;;266.47;57.43;;;15.10;99.90;;;;;;6160184;23;20410;-76
2021/10/27 12:15:20;;;;;;;333.53;67.23;;;15.10;99.90;;;;;;6159792;23;20510;-76
2021/10/27 12:18:08;;;;;;;244.10;53.70;;;15.20;99.90;;;;;;6159996;23;20502;-75
2021/10/27 12:20:39;;;;;;;279.63;56.00;;;15.20;99.90;;;;;;6186169;23;21001;-75
2021/10/27 12:23:18;;;;;;;273.37;60.10;;;15.20;99.90;;;;;;6159764;23;20403;-75
2021/10/27 12:25:47;;;;;;;401.20;103.50;;;15.30;99.90;;;;;;6159976;23;20514;-76
2021/10/27 12:28:29;;;;;;;366.00;83.57;;;15.30;99.90;;;;;;6159548;23;20451;-75
2021/10/27 12:30:58;;;;;;;328.67;80.63;;;15.30;99.90;;;;;;6186144;23;20450;-76
2021/10/27 12:33:38;;;;;;;317.33;82.10;;;15.30;99.90;;;;;;6159771;23;20422;-75
2021/10/27 12:36:25;;;;;;;350.40;104.43;;;15.30;99.90;;;;;;6159765;23;20423;-76
2021/10/27 12:39:08;;;;;;;340.63;110.50;;;15.30;99.90;;;;;;6159658;23;20442;-76
2021/10/27 12:41:36;;;;;;;382.23;96.47;;;15.40;99.90;;;;;;6159978;23;20950;-75
2021/10/27 12:44:19;;;;;;;389.30;103.87;;;15.40;99.90;;;;;;6159510;23;20426;-75
2021/10/27 12:46:48;;;;;;;449.10;111.37;;;15.40;99.90;;;;;;6159710;23;20452;-76
2021/10/27 12:49:21;;;;;;;362.13;102.83;;;15.40;99.90;;;;;;6195627;23;20430;-75
2021/10/27 12:51:50;;;;;;;468.13;112.57;;;15.50;99.90;;;;;;6159637;23;20482;-75
2021/10/27 12:54:28;;;;;;;476.17;129.77;;;15.50;99.90;;;;;;6159501;23;20948;-75
2021/10/27 12:57:06;;;;;;;477.20;118.43;;;15.50;99.90;;;;;;6186106;23;20406;-76
2021/10/27 12:59:35;;;;;;;363.13;104.53;;;15.50;99.90;;;;;;6159120;23;21004;-75
2021/10/27 13:02:15;;;;;;;439.97;98.20;;;15.50;99.90;;;;;;6159186;23;20474;-75
2021/10/27 13:04:51;;;;;;;500.87;103.60;;;15.60;99.90;;;;;;6159269;23;20834;-75
2021/10/27 13:07:22;;;;;;;389.43;94.77;;;15.60;99.90;;;;;;6159602;23;20537;-76
2021/10/27 13:10:07;;;;;;;538.83;109.87;;;15.60;99.90;;;;;;6159485;23;20471;-76
2021/10/27 13:13:00;;;;;;;464.77;111.80;;;15.60;99.90;;;;;;6159602;23;20414;-77
2021/10/27 13:29:43;;;;;;;387.43;107.70;;;15.70;99.90;;;;;;6159407;23;20493;-77
2021/10/27 13:32:15;;;;;;;342.50;106.30;;;15.70;99.90;;;;;;6159315;23;20821;-76
2021/10/27 13:34:44;;;;;;;380.87;101.13;;;15.70;99.90;;;;;;6159289;23;20443;-77
2021/10/27 13:37:13;;;;;;;56.80;27.63;;;15.70;99.90;;;;;;6159357;23;20423;-76
2021/10/27 13:39:43;;;;;;;173.27;70.07;;;15.70;99.90;;;;;;6159094;23;20458;-76
2021/10/27 13:42:22;;;;;;;371.87;112.30;;;15.70;99.90;;;;;;6196317;23;20682;-76
2021/10/27 13:45:07;;;;;;;50.53;33.47;;;15.70;99.90;;;;;;6195580;23;20395;-76
2021/10/27 13:47:41;;;;;;;221.50;88.17;;;15.80;99.90;;;;;;6159274;23;20518;-76
2021/10/27 14:07:05;;;;;;;120.50;77.33;;;15.70;99.90;;;;;;6195462;23;20390;-76
2021/10/27 14:09:39;;;;;;;116.97;69.10;;;15.80;99.90;;;;;;6159047;23;20492;-76
2021/10/27 14:12:19;;;;;;;379.90;127.13;;;15.70;99.90;;;;;;6159187;23;20463;-76
2021/10/27 14:15:16;;;;;;;340.33;144.03;;;15.80;99.90;;;;;;6159250;23;20506;-76
2021/10/27 14:18:11;;;;;;;210.40;96.10;;;15.80;99.90;;;;;;6159117;23;20469;-76
2021/10/27 14:40:13;;;;;;;660.37;253.07;;;15.80;99.90;;;;;;6196578;23;20447;-76
2021/10/27 15:21:45;;;;;;;105.97;71.47;;;15.70;99.90;;;;;;6197001;23;20470;-76
2021/10/27 15:24:34;;;;;;;73.97;44.00;;;15.70;99.90;;;;;;6160464;23;20410;-76
2021/10/27 15:33:04;;;;;;;85.47;52.17;;;15.60;99.90;;;;;;6159711;23;20394;-75
2021/10/27 15:35:55;;;;;;;125.80;52.30;;;15.60;99.90;;;;;;6160036;23;20400;-76
2021/10/27 15:41:18;;;;;;;43.87;29.83;;;15.60;99.90;;;;;;6159984;23;20447;-76
2021/10/27 15:43:58;;;;;;;190.13;57.60;;;15.70;99.90;;;;;;6160018;23;20878;-76
2021/10/27 15:52:04;;;;;;;385.93;109.33;;;15.60;99.90;;;;;;6161153;23;20430;-76
2021/10/27 15:54:32;;;;;;;348.30;89.53;;;15.60;99.90;;;;;;6186853;23;20483;-76
2021/10/27 15:57:00;;;;;;;374.00;101.20;;;15.60;99.90;;;;;;6186342;23;20962;-76
2021/10/27 15:59:29;;;;;;;391.87;117.30;;;15.60;99.90;;;;;;6159949;23;20763;-76
2021/10/27 16:01:57;;;;;;;425.43;120.57;;;15.60;99.90;;;;;;6159855;23;20435;-76
2021/10/27 16:04:27;;;;;;;330.50;82.77;;;15.60;99.90;;;;;;6159947;23;20466;-76
2021/10/27 16:06:55;;;;;;;42.63;31.00;;;15.60;99.90;;;;;;6159468;23;20415;-76
2021/10/27 16:09:27;;;;;;;442.37;121.77;;;15.60;99.90;;;;;;6159820;23;20436;-76
2021/10/27 16:11:58;;;;;;;352.43;99.57;;;15.50;99.90;;;;;;6194926;23;20387;-76
2021/10/27 16:14:28;;;;;;;360.40;114.20;;;15.60;99.90;;;;;;6186122;23;20909;-76
2021/10/27 16:16:56;;;;;;;375.17;113.53;;;15.50;99.90;;;;;;6159748;23;20427;-76
2021/10/27 16:19:29;;;;;;;252.20;66.37;;;15.50;99.90;;;;;;6160078;23;21014;-76
2021/10/27 16:22:09;;;;;;;307.73;87.23;;;15.50;99.90;;;;;;6196996;23;20415;-76
2021/10/27 16:24:40;;;;;;;360.23;84.20;;;15.50;99.90;;;;;;6159929;23;20839;-76
2021/10/27 16:27:08;;;;;;;341.60;85.00;;;15.50;99.90;;;;;;6159813;23;20503;-76
2021/10/27 16:29:37;;;;;;;544.50;103.27;;;15.50;99.90;;;;;;6159617;23;20506;-76